Time;durP1;ratioP1;P1;durP2;ratioP2;P2;SDS_P1;SDS_P2;PMS_P1;PMS_P2;Temp;Humidity;BMP_temperature;BMP_pressure;BME280_temperature;BME280_humidity;BME280_pressure;Samples;Min_cycle;Max_cycle;Signal;HPM_P1;HPM_P2
2021/09/24 00:00:00;;;;;;;15.97;12.23;;;;;;;13.57;100.00;96133.09;1027970;28;20023;-66
2021/09/24 00:00:30;;;;;;;17.17;12.53;;;;;;;13.57;100.00;96140.38;1027766;28;20023;-66
2021/09/24 00:01:02;;;;;;;17.50;12.10;;;;;;;13.57;100.00;96135.00;1020012;29;20019;-66
2021/09/24 00:01:32;;;;;;;15.90;11.73;;;;;;;13.55;100.00;96129.88;1023762;29;20016;-66
2021/09/24 00:02:03;;;;;;;14.53;11.50;;;;;;;13.57;100.00;96143.84;1020080;29;20035;-65
2021/09/24 00:02:33;;;;;;;14.23;11.27;;;;;;;13.57;100.00;96135.00;1024183;28;20034;-66
2021/09/24 00:03:04;;;;;;;15.23;11.47;;;;;;;13.55;100.00;96137.16;1027824;28;20356;-66
2021/09/24 00:03:35;;;;;;;15.87;12.27;;;;;;;13.53;100.00;96137.44;1027885;28;20521;-66
2021/09/24 00:04:06;;;;;;;16.45;12.07;;;;;;;13.53;100.00;96138.25;1027805;28;20029;-66
2021/09/24 00:04:36;;;;;;;14.93;12.63;;;;;;;13.56;100.00;96138.75;1027937;28;20041;-66
2021/09/24 00:05:08;;;;;;;19.57;13.97;;;;;;;13.50;100.00;96136.13;1027756;28;20270;-66
2021/09/24 00:05:38;;;;;;;17.40;13.57;;;;;;;13.51;100.00;96135.06;1028037;28;20058;-66
2021/09/24 00:06:09;;;;;;;16.27;12.53;;;;;;;13.49;100.00;96134.53;1027761;28;20023;-66
2021/09/24 00:06:40;;;;;;;16.93;12.43;;;;;;;13.45;100.00;96138.06;1027771;28;20404;-66
2021/09/24 00:07:10;;;;;;;17.73;11.70;;;;;;;13.44;100.00;96131.88;1027824;28;20434;-66
2021/09/24 00:07:40;;;;;;;16.60;11.13;;;;;;;13.45;100.00;96141.53;1027878;28;20069;-66
2021/09/24 00:08:11;;;;;;;15.67;11.40;;;;;;;13.46;100.00;96137.78;1027782;28;20118;-65
2021/09/24 00:08:41;;;;;;;15.17;12.33;;;;;;;13.43;100.00;96135.66;1027683;28;20034;-65
2021/09/24 00:09:12;;;;;;;16.53;12.50;;;;;;;13.43;100.00;96137.53;1031679;28;20076;-65
2021/09/24 00:09:42;;;;;;;16.37;12.57;;;;;;;13.42;100.00;96130.59;1023898;28;20030;-66
2021/09/24 00:10:13;;;;;;;16.77;12.87;;;;;;;13.42;100.00;96133.28;1027850;28;20073;-65
2021/09/24 00:10:44;;;;;;;15.60;12.87;;;;;;;13.39;100.00;96131.94;1023627;28;20439;-66
2021/09/24 00:11:15;;;;;;;16.25;12.82;;;;;;;13.39;100.00;96129.25;1024074;28;20334;-66
2021/09/24 00:11:45;;;;;;;16.67;12.53;;;;;;;13.37;100.00;96128.75;1027763;28;20030;-66
2021/09/24 00:12:16;;;;;;;15.97;12.70;;;;;;;13.38;100.00;96129.53;1028068;28;20156;-66
2021/09/24 00:12:46;;;;;;;16.47;12.97;;;;;;;13.38;100.00;96121.50;1031950;28;20061;-66
2021/09/24 00:13:17;;;;;;;22.90;13.43;;;;;;;13.37;100.00;96123.38;1031749;28;20014;-66
2021/09/24 00:13:47;;;;;;;15.70;12.50;;;;;;;13.38;100.00;96124.19;1031804;28;20035;-66
2021/09/24 00:14:17;;;;;;;15.77;12.03;;;;;;;13.41;100.00;96120.91;1031865;28;20027;-66
2021/09/24 00:14:48;;;;;;;15.50;12.07;;;;;;;13.40;100.00;96113.94;1031595;28;20030;-66
2021/09/24 00:15:18;;;;;;;18.57;12.27;;;;;;;13.37;100.00;96123.38;1031747;28;20026;-66
2021/09/24 00:15:49;;;;;;;15.03;12.13;;;;;;;13.38;100.00;96119.59;1027704;28;20026;-66
2021/09/24 00:16:19;;;;;;;16.20;12.67;;;;;;;13.39;100.00;96115.84;1027738;28;20038;-66
2021/09/24 00:16:49;;;;;;;16.40;13.03;;;;;;;13.36;100.00;96113.72;1027708;28;20034;-66
2021/09/24 00:17:20;;;;;;;17.73;13.20;;;;;;;13.37;100.00;96117.22;1031750;28;20026;-66
2021/09/24 00:17:50;;;;;;;16.93;12.97;;;;;;;13.35;100.00;96117.47;1031674;28;20030;-66
2021/09/24 00:18:21;;;;;;;16.43;12.40;;;;;;;13.37;100.00;96114.53;1031664;28;20037;-66
2021/09/24 00:18:51;;;;;;;16.50;12.47;;;;;;;13.39;100.00;96117.72;1031653;28;20014;-66
2021/09/24 00:19:21;;;;;;;15.73;11.90;;;;;;;13.39;100.00;96113.16;1027829;28;20027;-66
2021/09/24 00:19:53;;;;;;;17.20;12.87;;;;;;;13.40;100.00;96109.38;1031751;28;20019;-66
2021/09/24 00:20:23;;;;;;;16.40;12.65;;;;;;;13.39;100.00;96107.78;1027757;28;20557;-66
2021/09/24 00:20:54;;;;;;;18.03;13.13;;;;;;;13.37;100.00;96111.84;1023780;28;20094;-66
2021/09/24 00:21:24;;;;;;;17.43;13.00;;;;;;;13.36;100.00;96110.22;1027711;28;20074;-66
2021/09/24 00:21:55;;;;;;;17.77;12.90;;;;;;;13.36;100.00;96113.72;1027791;28;20055;-66
2021/09/24 00:22:25;;;;;;;16.77;12.87;;;;;;;13.37;100.00;96103.78;1031723;28;20031;-66
2021/09/24 00:22:55;;;;;;;16.53;13.60;;;;;;;13.38;100.00;96108.06;1032008;28;20023;-66
2021/09/24 00:23:26;;;;;;;18.30;13.33;;;;;;;13.39;100.00;96109.66;1027634;28;20026;-66
2021/09/24 00:23:56;;;;;;;17.43;13.47;;;;;;;13.38;100.00;96102.69;1027779;28;20031;-65
2021/09/24 00:24:27;;;;;;;16.63;12.87;;;;;;;13.36;100.00;96099.47;1027790;28;20018;-65
2021/09/24 00:24:57;;;;;;;16.63;13.00;;;;;;;13.36;100.00;96103.00;1027728;28;20057;-66
2021/09/24 00:25:27;;;;;;;17.80;12.67;;;;;;;13.37;100.00;96096.53;1032045;28;20374;-66
2021/09/24 00:25:58;;;;;;;15.30;12.97;;;;;;;13.36;100.00;96100.31;1031735;28;20459;-65
2021/09/24 00:26:29;;;;;;;16.13;12.67;;;;;;;13.38;100.00;96102.69;1031775;28;20027;-65
2021/09/24 00:26:59;;;;;;;16.03;12.30;;;;;;;13.39;100.00;96096.25;1031742;28;20463;-65
2021/09/24 00:27:29;;;;;;;16.67;13.20;;;;;;;13.38;100.00;96098.13;1031670;28;20030;-65
2021/09/24 00:28:03;;;;;;;16.33;13.03;;;;;;;13.38;100.00;96095.44;1031784;28;20386;-66
2021/09/24 00:28:33;;;;;;;17.67;12.98;;;;;;;13.39;100.00;96094.34;1027654;28;20029;-65
2021/09/24 00:29:04;;;;;;;16.97;13.00;;;;;;;13.39;100.00;96097.03;1027685;28;20026;-65
2021/09/24 00:29:34;;;;;;;18.20;12.87;;;;;;;13.40;100.00;96095.94;1028124;28;20034;-65
2021/09/24 00:30:05;;;;;;;17.23;12.47;;;;;;;13.37;100.00;96098.44;1027821;28;20031;-65
2021/09/24 00:30:36;;;;;;;16.42;12.57;;;;;;;13.36;100.00;96100.31;1027768;28;20027;-65
2021/09/24 00:31:06;;;;;;;17.10;12.57;;;;;;;13.36;100.00;96089.56;1027691;28;20031;-65
2021/09/24 00:31:36;;;;;;;16.80;12.77;;;;;;;13.37;100.00;96093.84;1023746;28;20019;-65
2021/09/24 00:32:07;;;;;;;18.40;13.17;;;;;;;13.33;100.00;96095.50;1027780;28;20019;-65
2021/09/24 00:32:38;;;;;;;17.00;12.77;;;;;;;13.31;100.00;96100.38;1027792;28;20033;-65
2021/09/24 00:33:08;;;;;;;18.20;13.00;;;;;;;13.30;100.00;96097.94;1023813;28;20412;-67
2021/09/24 00:33:38;;;;;;;19.03;13.37;;;;;;;13.30;100.00;96095.25;1028175;28;20121;-65
2021/09/24 00:34:09;;;;;;;15.40;13.10;;;;;;;13.28;100.00;96092.88;1028645;28;20499;-65
2021/09/24 00:34:39;;;;;;;16.57;13.33;;;;;;;13.28;100.00;96103.59;1028539;28;20026;-65
2021/09/24 00:35:10;;;;;;;16.90;13.70;;;;;;;13.27;100.00;96097.44;1032497;28;20089;-66
2021/09/24 00:35:40;;;;;;;19.87;13.63;;;;;;;13.26;100.00;96097.72;1028513;28;20451;-66
2021/09/24 00:36:10;;;;;;;18.60;13.40;;;;;;;13.25;100.00;96099.59;1024512;28;20015;-66
2021/09/24 00:36:41;;;;;;;16.77;12.90;;;;;;;13.24;100.00;96108.72;1028634;28;20045;-66
2021/09/24 00:37:11;;;;;;;16.77;12.90;;;;;;;13.25;100.00;96104.16;1028641;28;20395;-66
2021/09/24 00:37:42;;;;;;;17.90;13.07;;;;;;;13.23;100.00;96107.13;1032536;28;20037;-66
2021/09/24 00:38:12;;;;;;;16.43;13.27;;;;;;;13.23;100.00;96109.81;1032556;28;20010;-66
2021/09/24 00:38:43;;;;;;;16.90;13.03;;;;;;;13.24;100.00;96108.72;1032565;28;20040;-66
2021/09/24 00:39:13;;;;;;;17.50;13.20;;;;;;;13.26;100.00;96105.78;1028441;28;20141;-66
2021/09/24 00:39:44;;;;;;;18.40;13.23;;;;;;;13.24;100.00;96107.94;1028512;28;20035;-66
2021/09/24 00:40:14;;;;;;;16.90;13.07;;;;;;;13.27;100.00;96104.69;1028524;28;20019;-66
2021/09/24 00:40:44;;;;;;;17.17;13.77;;;;;;;13.29;100.00;96099.03;1032574;28;20053;-66
2021/09/24 00:41:15;;;;;;;19.17;14.10;;;;;;;13.26;100.00;96111.16;1028432;28;20019;-66
2021/09/24 00:41:45;;;;;;;19.30;14.33;;;;;;;13.25;100.00;96099.59;1020543;29;20032;-67
2021/09/24 00:42:16;;;;;;;16.57;13.60;;;;;;;13.26;100.00;96105.78;1016653;29;20394;-66
2021/09/24 00:42:46;;;;;;;17.67;13.27;;;;;;;13.24;100.00;96106.03;1012814;29;20470;-66
2021/09/24 00:43:17;;;;;;;16.57;14.30;;;;;;;13.26;100.00;96111.16;1020654;28;20659;-66
2021/09/24 00:43:47;;;;;;;16.10;12.73;;;;;;;13.24;100.00;96113.31;1024644;28;20027;-66
2021/09/24 00:44:18;;;;;;;18.63;13.53;;;;;;;13.23;100.00;96115.19;1028604;28;20026;-66
2021/09/24 00:44:49;;;;;;;18.47;13.50;;;;;;;13.26;100.00;96113.84;1028478;28;20031;-66
2021/09/24 00:45:20;;;;;;;18.23;13.52;;;;;;;13.25;100.00;96115.69;1028696;28;20014;-66
2021/09/24 00:45:50;;;;;;;17.90;13.17;;;;;;;13.24;100.00;96113.31;1032246;28;20034;-66
2021/09/24 00:46:21;;;;;;;16.20;13.30;;;;;;;13.23;100.00;96117.88;1028609;28;20031;-66
2021/09/24 00:46:51;;;;;;;16.73;13.23;;;;;;;13.24;100.00;96118.66;1032542;28;20014;-66
2021/09/24 00:47:22;;;;;;;16.90;13.97;;;;;;;13.23;100.00;96112.50;1032519;28;20037;-66
2021/09/24 00:47:52;;;;;;;17.90;13.57;;;;;;;13.18;100.00;96117.09;1032534;28;20025;-66
2021/09/24 00:48:23;;;;;;;18.83;14.37;;;;;;;13.17;100.00;96113.59;1032488;28;20058;-66
2021/09/24 00:48:53;;;;;;;19.47;13.50;;;;;;;13.16;100.00;96114.69;1032526;28;20043;-66
2021/09/24 00:49:23;;;;;;;18.20;13.37;;;;;;;13.17;100.00;96116.28;1028364;28;20418;-66
2021/09/24 00:49:54;;;;;;;18.47;13.00;;;;;;;13.17;100.00;96112.81;1028475;28;20074;-66
2021/09/24 00:50:24;;;;;;;19.97;13.27;;;;;;;13.20;100.00;96117.59;1024371;28;20034;-66
2021/09/24 00:50:55;;;;;;;16.23;13.57;;;;;;;13.20;100.00;96113.03;1024536;28;20011;-66
2021/09/24 00:51:25;;;;;;;17.60;13.63;;;;;;;13.22;100.00;96118.97;1028508;28;20102;-66
2021/09/24 00:51:55;;;;;;;20.03;13.47;;;;;;;13.22;100.00;96110.13;1020627;28;20019;-66
2021/09/24 00:52:26;;;;;;;18.30;13.77;;;;;;;13.20;100.00;96109.53;1020384;29;20056;-66
2021/09/24 00:52:56;;;;;;;16.93;12.47;;;;;;;13.21;100.00;96108.50;1020570;29;20075;-66
2021/09/24 00:53:29;;;;;;;19.07;13.17;;;;;;;13.14;100.00;96110.69;1020655;28;20024;-66
2021/09/24 00:54:00;;;;;;;18.02;12.88;;;;;;;13.16;100.00;96120.06;1024786;28;20011;-66
2021/09/24 00:54:30;;;;;;;16.77;12.97;;;;;;;13.14;100.00;96118.72;1028398;28;20026;-66
2021/09/24 00:55:01;;;;;;;16.97;12.93;;;;;;;13.16;100.00;96112.03;1028932;28;20074;-66
2021/09/24 00:55:31;;;;;;;19.60;13.63;;;;;;;13.16;100.00;96113.91;1028528;28;20023;-66
2021/09/24 00:56:02;;;;;;;17.40;12.93;;;;;;;13.18;100.00;96114.41;1028405;28;20030;-66
2021/09/24 00:56:32;;;;;;;17.93;13.47;;;;;;;13.15;100.00;96112.28;1028391;28;20490;-66
2021/09/24 00:57:03;;;;;;;17.50;14.43;;;;;;;13.15;100.00;96114.97;1020409;29;20425;-66
2021/09/24 00:57:33;;;;;;;17.93;12.57;;;;;;;13.14;100.00;96119.53;1020584;29;20374;-66
2021/09/24 00:58:04;;;;;;;19.33;13.53;;;;;;;13.16;100.00;96122.75;1024626;28;20023;-66
2021/09/24 00:58:34;;;;;;;16.43;12.43;;;;;;;13.16;100.00;96117.38;1024490;28;20050;-66
2021/09/24 00:59:05;;;;;;;17.00;13.13;;;;;;;13.17;100.00;96115.50;1028381;28;20026;-66
2021/09/24 00:59:35;;;;;;;16.13;12.73;;;;;;;13.19;100.00;96105.28;1028456;28;20518;-66
2021/09/24 01:00:06;;;;;;;21.93;13.57;;;;;;;13.17;100.00;96112.81;1024430;28;20016;-66
2021/09/24 01:00:37;;;;;;;20.73;13.47;;;;;;;13.14;100.00;96114.16;1028452;28;20018;-66
2021/09/24 01:01:07;;;;;;;17.93;13.73;;;;;;;13.16;100.00;96116.59;1032468;28;20253;-66
2021/09/24 01:01:37;;;;;;;16.07;12.63;;;;;;;13.15;100.00;96113.06;1028567;28;20106;-66
2021/09/24 01:02:08;;;;;;;18.73;13.10;;;;;;;13.16;100.00;96124.63;1032434;28;20057;-66
2021/09/24 01:02:38;;;;;;;16.40;12.43;;;;;;;13.16;100.00;96117.38;1028270;28;20027;-66
2021/09/24 01:03:09;;;;;;;16.40;13.37;;;;;;;13.15;100.00;96125.69;1024451;28;20027;-66
2021/09/24 01:03:39;;;;;;;17.43;14.03;;;;;;;13.13;100.00;96122.50;1028398;28;20027;-66
2021/09/24 01:04:10;;;;;;;16.50;13.10;;;;;;;13.13;100.00;96119.81;1028601;28;20023;-66
2021/09/24 01:04:40;;;;;;;18.30;13.47;;;;;;;13.14;100.00;96118.72;1032375;28;20081;-66
2021/09/24 01:05:11;;;;;;;19.23;12.87;;;;;;;13.14;100.00;96118.72;1032385;28;20031;-66
2021/09/24 01:05:41;;;;;;;18.57;14.27;;;;;;;13.11;100.00;96119.31;1024356;29;20027;-66
2021/09/24 01:06:13;;;;;;;18.70;12.73;;;;;;;13.13;100.00;96122.50;1024431;29;20018;-66
2021/09/24 01:06:43;;;;;;;16.85;13.57;;;;;;;13.12;100.00;96120.91;1020594;29;20047;-66
2021/09/24 01:07:14;;;;;;;19.23;14.57;;;;;;;13.15;100.00;96125.69;1020709;29;20020;-66
2021/09/24 01:07:45;;;;;;;17.27;13.00;;;;;;;13.13;100.00;96117.13;1024430;29;20031;-66
2021/09/24 01:08:15;;;;;;;21.33;12.90;;;;;;;13.14;100.00;96124.09;1020577;29;20046;-66
2021/09/24 01:08:46;;;;;;;17.87;12.87;;;;;;;13.13;100.00;96122.50;1020609;28;20024;-66
2021/09/24 01:09:17;;;;;;;15.83;12.67;;;;;;;13.12;100.00;96123.59;1024308;29;20039;-66
2021/09/24 01:09:47;;;;;;;15.87;13.03;;;;;;;13.13;100.00;96122.50;1024508;28;20039;-66
2021/09/24 01:10:17;;;;;;;18.83;13.60;;;;;;;13.13;100.00;96126.00;1028414;28;20479;-66
2021/09/24 01:10:48;;;;;;;15.83;13.10;;;;;;;13.14;100.00;96127.59;1028517;28;20035;-66
2021/09/24 01:11:18;;;;;;;16.50;12.40;;;;;;;13.13;100.00;96126.00;1028449;28;20022;-66
2021/09/24 01:11:51;;;;;;;18.30;12.90;;;;;;;13.12;100.00;96131.66;1028421;28;20031;-66
2021/09/24 01:12:21;;;;;;;16.65;13.23;;;;;;;13.12;100.00;96127.06;1032350;28;20022;-66
2021/09/24 01:12:52;;;;;;;15.80;12.10;;;;;;;13.10;100.00;96121.16;1028465;28;20495;-66
2021/09/24 01:13:23;;;;;;;19.48;13.48;;;;;;;13.10;100.00;96125.75;1024760;28;20023;-66
2021/09/24 01:13:53;;;;;;;17.10;12.57;;;;;;;13.09;100.00;96124.94;1028513;28;20448;-66
2021/09/24 01:14:27;;;;;;;14.67;12.53;;;;;;;13.08;100.00;96126.03;1024474;28;20554;-66
2021/09/24 01:15:01;;;;;;;15.80;12.73;;;;;;;13.08;100.00;96128.72;1028860;28;20019;-66
2021/09/24 01:15:31;;;;;;;18.33;12.85;;;;;;;13.05;100.00;96131.16;1032330;28;20530;-66
2021/09/24 01:16:02;;;;;;;15.60;12.40;;;;;;;13.06;100.00;96132.78;1029328;28;20069;-66
2021/09/24 01:16:32;;;;;;;17.10;12.77;;;;;;;13.06;100.00;96122.03;1032371;28;20109;-66
2021/09/24 01:17:03;;;;;;;14.87;12.17;;;;;;;13.05;100.00;96123.94;1032421;28;20030;-66
2021/09/24 01:17:33;;;;;;;17.70;12.33;;;;;;;13.05;100.00;96128.47;1032235;28;20456;-66
2021/09/24 01:18:04;;;;;;;14.67;12.10;;;;;;;13.04;100.00;96121.50;1032416;28;20022;-66
2021/09/24 01:18:34;;;;;;;18.37;12.10;;;;;;;13.04;100.00;96121.50;1024412;29;20038;-66
2021/09/24 01:19:04;;;;;;;16.47;12.20;;;;;;;13.02;100.00;96119.13;1024204;29;20082;-66
2021/09/24 01:19:35;;;;;;;17.10;12.07;;;;;;;13.01;100.00;96118.31;1024374;28;20063;-66
2021/09/24 01:20:06;;;;;;;15.57;12.70;;;;;;;13.01;100.00;96118.31;1024516;28;20494;-66
2021/09/24 01:20:37;;;;;;;15.52;12.70;;;;;;;13.02;100.00;96114.56;1028439;28;20062;-66
2021/09/24 01:21:09;;;;;;;17.23;12.65;;;;;;;12.99;100.00;96117.78;1028329;28;20123;-66
2021/09/24 01:21:43;;;;;;;17.63;12.52;;;;;;;13.02;100.00;96121.81;1020437;29;20515;-65
2021/09/24 01:22:13;;;;;;;14.48;11.52;;;;;;;13.02;100.00;96117.22;1025068;28;20027;-66
2021/09/24 01:22:43;;;;;;;15.97;11.80;;;;;;;13.01;100.00;96114.84;1028986;28;20019;-66
2021/09/24 01:23:14;;;;;;;15.17;12.20;;;;;;;13.03;100.00;96118.03;1028921;28;20026;-65
2021/09/24 01:23:44;;;;;;;17.20;12.60;;;;;;;12.99;100.00;96117.78;1032296;28;20073;-65
2021/09/24 01:24:15;;;;;;;17.73;13.47;;;;;;;12.93;100.00;96108.19;1032390;28;20030;-65
2021/09/24 01:24:45;;;;;;;17.80;13.73;;;;;;;12.96;100.00;96109.53;1032388;28;20026;-65
2021/09/24 01:25:16;;;;;;;18.33;12.47;;;;;;;12.99;100.00;96115.09;1028505;28;20034;-66
2021/09/24 01:25:46;;;;;;;16.63;12.50;;;;;;;12.90;100.00;96111.44;1028343;28;20023;-66
2021/09/24 01:26:17;;;;;;;18.20;12.70;;;;;;;12.95;100.00;96107.94;1032463;28;20027;-65
2021/09/24 01:26:48;;;;;;;19.53;13.10;;;;;;;12.95;100.00;96121.34;1032671;28;20363;-65
2021/09/24 01:27:19;;;;;;;19.02;13.40;;;;;;;12.92;100.00;96111.94;1032365;28;20032;-66
2021/09/24 01:27:50;;;;;;;15.43;12.40;;;;;;;12.93;100.00;96115.44;1032197;28;20042;-65
2021/09/24 01:28:20;;;;;;;18.87;13.20;;;;;;;12.90;100.00;96111.44;1032415;28;20019;-65
2021/09/24 01:28:50;;;;;;;15.90;12.63;;;;;;;12.93;100.00;96110.06;1032354;28;20026;-65
2021/09/24 01:29:26;;;;;;;17.13;12.23;;;;;;;12.90;100.00;96114.13;1032670;28;20030;-65
2021/09/24 01:29:56;;;;;;;16.50;11.88;;;;;;;12.88;100.00;96105.53;1032589;28;20431;-65
2021/09/24 01:30:27;;;;;;;18.20;12.97;;;;;;;12.88;100.00;96108.22;1032574;28;20050;-66
2021/09/24 01:30:57;;;;;;;16.57;12.60;;;;;;;12.91;100.00;96105.00;1032733;28;20034;-66
2021/09/24 01:31:28;;;;;;;17.40;12.60;;;;;;;12.88;100.00;96108.22;1032721;28;20221;-66
2021/09/24 01:31:58;;;;;;;15.57;12.30;;;;;;;12.88;100.00;96102.88;1032627;28;20046;-66
2021/09/24 01:32:28;;;;;;;17.37;12.70;;;;;;;12.88;100.00;96105.53;1032599;28;20022;-66
2021/09/24 01:32:59;;;;;;;15.40;12.13;;;;;;;12.87;100.00;96112.00;1032394;28;20029;-65
2021/09/24 01:33:29;;;;;;;17.03;12.40;;;;;;;12.88;100.00;96099.38;1032332;28;20018;-66
2021/09/24 01:34:00;;;;;;;17.83;12.50;;;;;;;12.89;100.00;96111.72;1028234;28;20022;-65
2021/09/24 01:34:30;;;;;;;15.07;11.90;;;;;;;12.85;100.00;96106.13;1028329;28;20050;-65
2021/09/24 01:35:04;;;;;;;16.27;11.90;;;;;;;12.84;100.00;96107.19;1032378;28;20022;-66
2021/09/24 01:35:35;;;;;;;17.52;13.27;;;;;;;12.87;100.00;96109.31;1032326;28;20073;-66
2021/09/24 01:36:05;;;;;;;16.10;12.60;;;;;;;12.86;100.00;96110.41;1028218;28;20467;-66
2021/09/24 01:36:35;;;;;;;17.23;12.67;;;;;;;12.84;100.00;96103.72;1019979;29;20028;-67
2021/09/24 01:37:06;;;;;;;17.37;12.67;;;;;;;12.84;100.00;96109.06;1020292;29;20032;-66
2021/09/24 01:37:36;;;;;;;17.87;12.27;;;;;;;12.82;100.00;96106.69;1020617;28;20023;-66
2021/09/24 01:38:07;;;;;;;17.07;12.40;;;;;;;12.82;100.00;96109.34;1028383;28;20031;-66
2021/09/24 01:38:38;;;;;;;16.93;12.97;;;;;;;12.82;100.00;96105.88;1036468;28;20025;-67
2021/09/24 01:39:09;;;;;;;15.93;12.63;;;;;;;12.82;100.00;96105.88;1036263;28;20024;-67
2021/09/24 01:39:40;;;;;;;17.83;13.18;;;;;;;12.76;100.00;96107.81;1032682;28;20616;-67
2021/09/24 01:40:15;;;;;;;18.47;12.17;;;;;;;12.78;100.00;96105.63;1032446;28;20023;-67
2021/09/24 01:40:45;;;;;;;16.77;12.93;;;;;;;12.77;100.00;96105.91;1032641;28;20022;-67
2021/09/24 01:41:16;;;;;;;17.23;12.83;;;;;;;12.76;100.00;96099.75;1032341;28;20483;-66
2021/09/24 01:41:47;;;;;;;16.37;12.83;;;;;;;12.77;100.00;96100.56;1032248;28;20422;-67
2021/09/24 01:42:21;;;;;;;17.60;13.07;;;;;;;12.70;100.00;96101.69;1028197;28;20471;-66
2021/09/24 01:42:53;;;;;;;17.55;12.68;;;;;;;12.71;100.00;96100.59;1028293;28;20053;-66
2021/09/24 01:43:23;;;;;;;16.30;12.45;;;;;;;12.72;100.00;96096.03;1029122;28;20026;-66
2021/09/24 01:43:53;;;;;;;16.87;13.00;;;;;;;12.71;100.00;96089.88;1032331;28;20053;-66
2021/09/24 01:44:24;;;;;;;18.37;12.93;;;;;;;12.68;100.00;96094.97;1032579;28;20033;-66
2021/09/24 01:44:54;;;;;;;17.83;12.47;;;;;;;12.67;100.00;96088.03;1032102;28;20045;-66
2021/09/24 01:45:25;;;;;;;21.80;13.20;;;;;;;12.68;100.00;96094.97;1032055;28;20375;-66
2021/09/24 01:45:55;;;;;;;19.63;13.57;;;;;;;12.67;100.00;96090.72;1032414;28;20026;-66
2021/09/24 01:46:26;;;;;;;24.77;13.57;;;;;;;12.70;100.00;96098.22;1032392;28;20027;-67
2021/09/24 01:46:56;;;;;;;15.97;12.10;;;;;;;12.73;100.00;96092.25;1032492;28;20026;-66
2021/09/24 01:47:26;;;;;;;19.10;12.27;;;;;;;12.73;100.00;96098.44;1032552;28;20390;-66
2021/09/24 01:47:57;;;;;;;21.00;13.63;;;;;;;12.72;100.00;96090.66;1032573;28;20105;-66
2021/09/24 01:48:27;;;;;;;18.80;13.13;;;;;;;12.71;100.00;96097.13;1032505;28;20402;-66
2021/09/24 01:48:58;;;;;;;19.50;12.93;;;;;;;12.69;100.00;96093.91;1032033;28;20462;-66
2021/09/24 01:49:28;;;;;;;19.07;12.23;;;;;;;12.71;100.00;96097.13;1028065;28;20027;-66
2021/09/24 01:49:58;;;;;;;16.40;12.03;;;;;;;12.69;100.00;96093.91;1028129;28;20031;-64
2021/09/24 01:50:29;;;;;;;16.90;12.77;;;;;;;12.72;100.00;96094.16;1028238;28;20046;-65
2021/09/24 01:50:59;;;;;;;20.77;13.50;;;;;;;12.70;100.00;96093.63;1032137;28;20093;-65
2021/09/24 01:51:30;;;;;;;16.93;12.13;;;;;;;12.73;100.00;96093.06;1036295;28;20076;-64
2021/09/24 01:52:00;;;;;;;16.60;12.17;;;;;;;12.71;100.00;96091.75;1036113;28;20056;-65
2021/09/24 01:52:30;;;;;;;15.90;12.13;;;;;;;12.69;100.00;96097.41;1032208;28;20023;-65
2021/09/24 01:53:01;;;;;;;17.53;13.87;;;;;;;12.67;100.00;96090.72;1032223;28;20026;-65
2021/09/24 01:53:31;;;;;;;18.43;13.10;;;;;;;12.64;100.00;96093.94;1028267;28;20551;-65
2021/09/24 01:54:02;;;;;;;16.47;12.30;;;;;;;12.67;100.00;96088.81;1024266;28;20022;-65
2021/09/24 01:54:33;;;;;;;16.57;12.70;;;;;;;12.68;100.00;96087.75;1028131;28;20027;-65
2021/09/24 01:55:03;;;;;;;16.07;11.83;;;;;;;12.74;100.00;96088.50;1028275;28;20066;-67
2021/09/24 01:55:34;;;;;;;20.97;12.50;;;;;;;12.74;100.00;96089.31;1032276;28;20117;-66
2021/09/24 01:56:04;;;;;;;15.07;12.27;;;;;;;12.74;100.00;96086.66;1032199;28;20383;-66
2021/09/24 01:56:35;;;;;;;18.23;13.10;;;;;;;12.72;100.00;96083.41;1028230;28;21652;-67
2021/09/24 01:57:05;;;;;;;18.03;13.57;;;;;;;12.73;100.00;96086.91;1032109;28;20022;-66
2021/09/24 01:57:36;;;;;;;16.70;13.23;;;;;;;12.74;100.00;96080.44;1024103;28;20448;-66
2021/09/24 01:58:06;;;;;;;16.67;12.20;;;;;;;12.74;100.00;96083.97;1020226;29;20090;-66
2021/09/24 01:58:37;;;;;;;15.20;11.63;;;;;;;12.73;100.00;96084.22;1024230;29;20054;-66
2021/09/24 01:59:07;;;;;;;14.80;12.23;;;;;;;12.72;100.00;96079.94;1024283;28;20082;-66
2021/09/24 01:59:38;;;;;;;16.50;12.10;;;;;;;12.72;100.00;96079.94;1032205;28;20085;-66
2021/09/24 02:00:10;;;;;;;14.77;12.03;;;;;;;12.73;100.00;96086.91;1032489;28;20508;-66
2021/09/24 02:00:40;;;;;;;15.68;12.55;;;;;;;12.68;100.00;96082.38;1032418;28;20022;-66
2021/09/24 02:01:11;;;;;;;15.97;12.13;;;;;;;12.66;100.00;96091.78;1032396;28;20042;-66
2021/09/24 02:01:41;;;;;;;15.77;11.43;;;;;;;12.70;100.00;96082.13;1032135;28;20072;-66
2021/09/24 02:02:12;;;;;;;15.57;12.57;;;;;;;12.70;100.00;96082.13;1032152;28;20031;-66
2021/09/24 02:02:42;;;;;;;15.80;12.23;;;;;;;12.72;100.00;96085.31;1032072;28;20023;-66
2021/09/24 02:03:12;;;;;;;16.07;11.20;;;;;;;12.72;100.00;96085.31;1032072;28;20113;-66
2021/09/24 02:03:43;;;;;;;15.80;11.63;;;;;;;12.72;100.00;96090.66;1032429;28;20026;-66
2021/09/24 02:04:15;;;;;;;14.73;11.33;;;;;;;12.72;100.00;96085.31;1032493;28;20030;-66
2021/09/24 02:04:46;;;;;;;14.25;11.50;;;;;;;12.74;100.00;96096.53;1032113;28;20117;-66
2021/09/24 02:05:16;;;;;;;14.80;11.30;;;;;;;12.72;100.00;96088.00;1027936;28;20030;-66
2021/09/24 02:05:46;;;;;;;16.23;11.70;;;;;;;12.72;100.00;96090.66;1024075;29;20027;-66
2021/09/24 02:06:17;;;;;;;14.00;11.07;;;;;;;12.72;100.00;96094.16;1024225;28;20126;-66
2021/09/24 02:06:47;;;;;;;15.57;11.57;;;;;;;12.74;100.00;96088.50;1028255;28;20399;-66
2021/09/24 02:07:18;;;;;;;13.57;11.60;;;;;;;12.78;100.00;96094.91;1032126;28;20490;-66
2021/09/24 02:07:48;;;;;;;13.73;10.67;;;;;;;12.78;100.00;96091.44;1032462;28;20120;-66
2021/09/24 02:08:19;;;;;;;15.07;11.37;;;;;;;12.78;100.00;96102.94;1032457;28;20026;-66
2021/09/24 02:08:49;;;;;;;16.33;11.53;;;;;;;12.78;100.00;96100.25;1032418;28;20037;-65
2021/09/24 02:09:19;;;;;;;13.77;11.13;;;;;;;12.81;100.00;96098.91;1032304;28;20030;-66
2021/09/24 02:09:50;;;;;;;14.30;11.33;;;;;;;12.82;100.00;96105.88;1032426;28;20037;-66
2021/09/24 02:10:20;;;;;;;17.00;11.90;;;;;;;12.79;100.00;96104.53;1032489;28;20023;-66
2021/09/24 02:10:51;;;;;;;15.67;10.93;;;;;;;12.80;100.00;96095.44;1032456;28;20324;-66
2021/09/24 02:11:21;;;;;;;13.70;11.33;;;;;;;12.81;100.00;96106.97;1032362;28;20407;-66
2021/09/24 02:11:51;;;;;;;14.80;11.13;;;;;;;12.79;100.00;96098.38;1032367;28;20424;-66
2021/09/24 02:12:22;;;;;;;17.63;11.90;;;;;;;12.79;100.00;96101.88;1032389;28;20023;-66
2021/09/24 02:12:57;;;;;;;15.13;11.70;;;;;;;12.81;100.00;96105.09;1032374;28;20022;-66
2021/09/24 02:13:28;;;;;;;14.70;11.77;;;;;;;12.81;100.00;96102.41;1032049;28;20014;-66
2021/09/24 02:13:58;;;;;;;15.90;11.53;;;;;;;12.79;100.00;96099.19;1028003;28;20106;-66
2021/09/24 02:14:28;;;;;;;16.47;11.60;;;;;;;12.75;100.00;96096.28;1028134;28;20019;-66
2021/09/24 02:14:59;;;;;;;16.47;12.17;;;;;;;12.75;100.00;96092.81;1028798;28;20522;-66
2021/09/24 02:15:29;;;;;;;17.30;11.33;;;;;;;12.77;100.00;96098.69;1032033;28;20544;-66
2021/09/24 02:16:00;;;;;;;17.03;11.57;;;;;;;12.78;100.00;96099.47;1032323;28;20043;-66
2021/09/24 02:16:30;;;;;;;13.77;10.73;;;;;;;12.76;100.00;96097.06;1032385;28;20022;-66
2021/09/24 02:17:03;;;;;;;12.67;11.00;;;;;;;12.76;100.00;96094.41;1032390;28;20023;-66
2021/09/24 02:17:33;;;;;;;13.55;11.27;;;;;;;12.74;100.00;96100.03;1032366;28;20026;-66
2021/09/24 02:18:04;;;;;;;13.70;10.97;;;;;;;12.75;100.00;96090.13;1032369;28;20030;-66
2021/09/24 02:18:34;;;;;;;20.10;11.73;;;;;;;12.75;100.00;96098.16;1032344;28;20010;-66
2021/09/24 02:19:05;;;;;;;16.23;11.07;;;;;;;12.75;100.00;96095.47;1032480;28;20056;-66